Terminal Aerodrome Forecast
Issued by NWS St Louis, MO

Home | Current Version | Previous Version | Text Only | Print | Product List | Glossary On
Versions: 1 2 3 4 5 6 7 8 9 10 11 12 13 14 15 16 17 18 19 20 21 22 23 24 25 26 27
000
FTUS43 KLSX 300500
TAFCOU
TAF
KCOU 300520Z 3006/3106 14006KT 5SM -SHRA OVC040
      TEMPO 3006/3008 2SM TSRA OVC020CB
     FM300800 14005KT 5SM -SHRA BR VCTS SCT010 OVC020CB
     FM301200 35010KT 5SM -RA BR OVC010
     FM301800 33013KT P6SM OVC012=

USA.gov is the U.S. government's official web portal to all federal, state and local government web resources and services.